createdAt,value
2022-09-03T00:03:05.485Z,7.80
2022-09-03T00:08:23.218Z,8.23
2022-09-03T00:13:51.184Z,10.80
2022-09-03T00:18:58.855Z,9.73
2022-09-03T00:24:04.480Z,16.60
2022-09-03T00:29:19.258Z,10.85
2022-09-03T00:34:41.363Z,7.95
2022-09-03T00:39:43.971Z,9.20
2022-09-03T00:45:00.944Z,7.85
2022-09-03T00:50:12.903Z,8.07
2022-09-03T00:55:39.116Z,6.75
2022-09-03T01:00:43.779Z,7.80
2022-09-03T01:06:08.113Z,9.00
2022-09-03T01:11:28.123Z,5.45
2022-09-03T01:16:51.713Z,4.47
2022-09-03T01:22:25.286Z,3.75
2022-09-03T01:27:44.019Z,4.50
2022-09-03T01:33:14.044Z,5.93
2022-09-03T01:38:41.585Z,6.13
2022-09-03T01:44:37.366Z,5.10
2022-09-03T01:50:11.898Z,9.48
2022-09-03T01:55:57.923Z,8.25
2022-09-03T02:01:05.307Z,7.05
2022-09-03T02:06:09.104Z,5.63
2022-09-03T02:11:11.203Z,6.10
2022-09-03T02:16:25.598Z,7.53
2022-09-03T02:21:35.104Z,7.82
2022-09-03T02:26:37.412Z,8.98
2022-09-03T02:31:39.566Z,7.13
2022-09-03T02:36:45.879Z,9.05
2022-09-03T02:41:57.347Z,8.82
2022-09-03T02:52:12.212Z,6.35
2022-09-03T02:57:16.362Z,5.90
2022-09-03T03:02:24.530Z,8.40
2022-09-03T03:07:28.127Z,8.52
2022-09-03T03:12:30.768Z,8.82
2022-09-03T03:17:33.094Z,13.00
2022-09-03T03:22:35.283Z,9.18
2022-09-03T03:27:39.771Z,8.90
2022-09-03T03:32:41.828Z,6.60
2022-09-03T03:37:43.841Z,11.48
2022-09-03T03:42:45.899Z,9.90
2022-09-03T03:47:47.999Z,7.57
2022-09-03T03:52:50.120Z,9.15
2022-09-03T03:57:52.146Z,10.27
2022-09-03T04:02:54.224Z,11.00
2022-09-03T04:07:56.254Z,9.70
2022-09-03T04:12:58.357Z,10.55
2022-09-03T04:18:00.593Z,8.80
2022-09-03T04:23:02.843Z,12.27
2022-09-03T04:28:04.951Z,15.88
2022-09-03T04:33:07.300Z,8.52
2022-09-03T04:38:18.347Z,10.55
2022-09-03T04:43:20.427Z,7.65
2022-09-03T04:48:22.428Z,8.55
2022-09-03T04:53:24.430Z,9.18
2022-09-03T04:58:26.454Z,11.25
2022-09-03T05:03:29.088Z,10.75
2022-09-03T05:08:31.449Z,9.00
2022-09-03T05:13:35.039Z,10.55
2022-09-03T05:18:37.547Z,8.52
2022-09-03T05:23:42.478Z,7.10
2022-09-03T05:28:45.564Z,8.38
2022-09-03T05:33:50.693Z,10.55
2022-09-03T05:38:55.920Z,11.02
2022-09-03T05:44:00.869Z,9.02
2022-09-03T05:49:05.543Z,9.27
2022-09-03T05:54:08.746Z,9.30
2022-09-03T05:59:11.244Z,9.98
2022-09-03T06:04:14.759Z,10.45
2022-09-03T06:09:23.169Z,12.07
2022-09-03T06:14:25.828Z,10.07
2022-09-03T06:19:27.919Z,10.35
2022-09-03T06:24:30.027Z,12.35
2022-09-03T06:29:32.031Z,11.52
2022-09-03T06:34:34.069Z,10.52
2022-09-03T06:39:36.175Z,12.75
2022-09-03T06:44:38.287Z,9.95
2022-09-03T06:49:40.345Z,9.10
2022-09-03T06:54:43.012Z,8.88
2022-09-03T06:59:45.336Z,14.50
2022-09-03T07:04:48.916Z,11.82
2022-09-03T07:09:52.444Z,12.23
2022-09-03T07:14:54.668Z,12.20
2022-09-03T07:19:56.733Z,10.10
2022-09-03T07:24:58.764Z,10.50
2022-09-03T07:30:00.771Z,13.35
2022-09-03T07:35:03.227Z,10.27
2022-09-03T07:40:05.675Z,10.73
2022-09-03T07:45:11.773Z,8.98
2022-09-03T07:50:13.867Z,8.05
2022-09-03T07:55:15.980Z,7.05
2022-09-03T08:00:18.115Z,14.63
2022-09-03T08:05:21.551Z,8.02
2022-09-03T08:10:24.627Z,11.00
2022-09-03T08:15:26.969Z,7.45
2022-09-03T08:20:29.100Z,8.10
2022-09-03T08:25:33.101Z,7.63
2022-09-03T08:30:36.315Z,8.77
2022-09-03T08:35:39.320Z,5.57
2022-09-03T08:40:42.887Z,6.50
2022-09-03T08:45:45.409Z,6.82
2022-09-03T08:50:52.653Z,8.48
2022-09-03T08:56:05.024Z,3.67
2022-09-03T09:01:16.324Z,4.72
2022-09-03T09:06:23.946Z,7.38
2022-09-03T09:11:38.121Z,4.50
2022-09-03T09:17:31.157Z,5.80
2022-09-03T09:22:47.397Z,2.85
2022-09-03T09:28:10.923Z,10.13
2022-09-03T09:33:14.930Z,3.92
2022-09-03T09:38:31.012Z,3.72
2022-09-03T09:43:33.578Z,3.83
2022-09-03T09:48:46.368Z,4.25
2022-09-03T09:53:49.726Z,3.50
2022-09-03T09:59:03.886Z,5.30
2022-09-03T10:04:24.305Z,5.68
2022-09-03T10:09:31.588Z,6.75
2022-09-03T10:14:42.579Z,3.30
2022-09-03T10:20:27.713Z,6.05
2022-09-03T10:25:39.198Z,7.05
2022-09-03T10:30:56.553Z,4.88
2022-09-03T10:36:20.912Z,5.57
2022-09-03T10:41:34.312Z,4.88
2022-09-03T10:46:59.435Z,4.55
2022-09-03T10:52:27.945Z,4.70
2022-09-03T10:57:54.439Z,4.70
2022-09-03T11:03:34.293Z,2.75
2022-09-03T11:08:47.260Z,3.97
2022-09-03T11:13:59.482Z,4.10
2022-09-03T11:19:08.188Z,3.95
2022-09-03T11:24:22.355Z,4.18
2022-09-03T11:29:40.240Z,3.88
2022-09-03T11:34:54.488Z,5.13
2022-09-03T11:40:05.702Z,3.58
2022-09-03T11:45:31.175Z,3.40
2022-09-03T11:50:34.114Z,5.05
2022-09-03T11:55:55.963Z,3.17
2022-09-03T12:00:58.986Z,2.92
2022-09-03T12:06:35.315Z,3.08
2022-09-03T12:12:01.852Z,3.05
2022-09-03T12:17:18.012Z,4.57
2022-09-03T12:22:24.215Z,3.15
2022-09-03T12:27:32.748Z,7.38
2022-09-03T12:32:41.378Z,4.18
2022-09-03T12:48:43.610Z,6.22
2022-09-03T12:53:46.455Z,2.20
2022-09-03T12:58:59.345Z,4.00
2022-09-03T13:04:15.397Z,4.10
2022-09-03T13:09:22.895Z,5.65
2022-09-03T13:14:27.760Z,4.78
2022-09-03T13:19:58.039Z,3.20
2022-09-03T13:25:15.249Z,2.60
2022-09-03T13:30:23.258Z,2.60
2022-09-03T13:35:34.587Z,2.95
2022-09-03T13:40:49.733Z,2.92
2022-09-03T13:45:58.883Z,2.25
2022-09-03T13:51:07.071Z,2.38
2022-09-03T13:56:34.178Z,5.93
2022-09-03T14:01:53.380Z,3.50
2022-09-03T14:07:06.416Z,3.60
2022-09-03T14:12:49.950Z,2.60
2022-09-03T14:18:28.812Z,2.80
2022-09-03T14:24:12.721Z,3.97
2022-09-03T14:29:16.921Z,3.05
2022-09-03T14:34:37.255Z,3.33
2022-09-03T14:39:55.794Z,4.95
2022-09-03T14:45:18.542Z,4.53
2022-09-03T14:50:38.519Z,2.88
2022-09-03T14:56:17.646Z,3.17
2022-09-03T15:01:29.975Z,2.58
2022-09-03T15:06:49.612Z,2.90
2022-09-03T15:12:06.061Z,3.38
2022-09-03T15:17:52.167Z,2.67
2022-09-03T15:23:18.249Z,2.53
2022-09-03T15:28:39.475Z,4.65
2022-09-03T15:34:05.037Z,2.70
2022-09-03T15:39:10.871Z,3.10
2022-09-03T15:44:20.034Z,6.13
2022-09-03T15:49:27.061Z,2.83
2022-09-03T15:54:58.080Z,4.45
2022-09-03T16:00:13.124Z,6.72
2022-09-03T16:05:19.467Z,4.15
2022-09-03T16:10:25.319Z,2.83
2022-09-03T16:15:30.807Z,3.72
2022-09-03T16:20:43.042Z,3.53
2022-09-03T16:25:51.113Z,12.88
2022-09-03T16:31:12.019Z,3.25
2022-09-03T16:36:50.796Z,3.90
2022-09-03T16:42:05.121Z,4.65
2022-09-03T16:47:26.459Z,4.60
2022-09-03T16:52:57.139Z,15.90
2022-09-03T16:58:14.095Z,5.30
2022-09-03T17:03:40.710Z,4.82
2022-09-03T17:09:20.188Z,8.10
2022-09-03T17:14:49.690Z,4.63
2022-09-03T17:20:01.746Z,6.82
2022-09-03T17:25:06.936Z,3.20
2022-09-03T17:30:20.358Z,4.55
2022-09-03T17:35:39.926Z,4.30
2022-09-03T17:40:52.508Z,3.85
2022-09-03T17:46:19.710Z,3.50
2022-09-03T17:51:21.736Z,7.82
2022-09-03T17:56:47.951Z,7.28
2022-09-03T18:02:10.428Z,4.78
2022-09-03T18:07:27.648Z,6.30
2022-09-03T18:12:38.787Z,5.93
2022-09-03T18:17:54.618Z,5.80
2022-09-03T18:23:42.932Z,5.60
2022-09-03T18:29:19.934Z,5.20
2022-09-03T18:34:49.532Z,5.93
2022-09-03T18:40:10.183Z,8.70
2022-09-03T18:46:45.973Z,5.13
2022-09-03T18:52:09.938Z,5.38
2022-09-03T18:57:49.874Z,4.97
2022-09-03T19:03:19.667Z,7.13
2022-09-03T19:08:44.461Z,6.30
2022-09-03T19:14:05.374Z,5.10
2022-09-03T19:19:39.064Z,4.35
2022-09-03T19:24:59.963Z,6.55
2022-09-03T19:30:28.132Z,6.10
2022-09-03T19:36:01.449Z,6.35
2022-09-03T19:41:46.396Z,5.18
2022-09-03T19:47:16.829Z,6.40
2022-09-03T19:53:00.729Z,8.07
2022-09-03T19:58:42.004Z,4.93
2022-09-03T20:04:02.056Z,5.70
2022-09-03T20:09:28.546Z,6.38
2022-09-03T20:14:34.447Z,4.75
2022-09-03T20:19:50.069Z,6.88
2022-09-03T20:25:29.496Z,4.88
2022-09-03T20:30:46.758Z,7.35
2022-09-03T20:36:07.599Z,5.60
2022-09-03T20:41:21.539Z,5.65
2022-09-03T20:46:38.637Z,6.22
2022-09-03T20:51:54.279Z,7.40
2022-09-03T20:57:05.637Z,7.95
2022-09-03T21:02:36.362Z,6.15
2022-09-03T21:08:11.227Z,6.68
2022-09-03T21:13:38.235Z,7.50
2022-09-03T21:18:52.794Z,8.73
2022-09-03T21:24:31.206Z,10.15
2022-09-03T21:30:09.002Z,7.85
2022-09-03T21:35:16.012Z,4.95
2022-09-03T21:40:24.511Z,6.50
2022-09-03T21:45:37.059Z,6.07
2022-09-03T21:50:51.031Z,5.43
2022-09-03T21:56:01.779Z,5.80
2022-09-03T22:01:10.435Z,8.40
2022-09-03T22:06:25.855Z,4.78
2022-09-03T22:11:35.541Z,5.75
2022-09-03T22:16:43.679Z,5.80
2022-09-03T22:22:23.808Z,9.50
2022-09-03T22:27:44.289Z,5.85
2022-09-03T22:32:52.202Z,8.20
2022-09-03T22:38:14.479Z,8.73
2022-09-03T22:43:31.309Z,9.38
2022-09-03T22:48:54.670Z,7.60
2022-09-03T22:54:08.944Z,7.78
2022-09-03T22:59:16.264Z,6.72
2022-09-03T23:04:39.776Z,5.90
2022-09-03T23:09:44.255Z,8.93
2022-09-03T23:14:53.655Z,6.93
2022-09-03T23:25:37.974Z,10.35
2022-09-03T23:30:41.619Z,10.35
2022-09-03T23:35:56.174Z,9.73
2022-09-03T23:41:04.058Z,11.98
2022-09-03T23:46:17.672Z,7.43
2022-09-03T23:51:32.656Z,8.60
2022-09-03T23:56:49.632Z,8.70
